Wednesday, October 18, 2017, 3:42 AM EDT
Back to Local

KMTP, Montauk Airport

Location: Montauk, NY, United States Lat: 41.067
Local Time: 3:42 AM EDT ( 7:42 GMT) Lon: -71.917
Time Zone: US/Eastern Elev: 6 ft

Show me the last for .
Show Decoded

2017-10-18 02:54 METAR KMTP 180654Z AUTO 25008KT 13/06 A3026 RMK AO1 SLP248 T01330061 =
2017-10-18 01:54 METAR KMTP 180554Z AUTO 24005KT 13/08 A3028 RMK AO1 SLP253 T01330078 10133 20106
                 56007 =
2017-10-18 00:54 METAR KMTP 180454Z AUTO 23005KT 12/07 A3028 RMK AO1 SLP254 T01220072 401280083 =
2017-10-17 23:54 METAR KMTP 180354Z AUTO 23004KT 11/07 A3029 RMK AO1 SLP257 T01110067 =
2017-10-17 22:54 METAR KMTP 180254Z AUTO 23005KT 11/06 A3030 RMK AO1 SLP261 T01110061 53002 =
2017-10-17 21:54 METAR KMTP 180154Z AUTO 23003KT 11/06 A3030 RMK AO1 SLP260 T01110061 =
2017-10-17 20:54 METAR KMTP 180054Z AUTO 24004KT 11/05 A3029 RMK AO1 SLP257 T01110050 =
2017-10-17 19:54 METAR KMTP 172354Z AUTO 23004KT 11/04 A3030 RMK AO1 SLP258 T01060044 10128 20106
                 53008 =
2017-10-17 18:54 METAR KMTP 172254Z AUTO 22003KT 11/04 A3029 RMK AO1 SLP256 T01060039 =
2017-10-17 17:54 METAR KMTP 172154Z AUTO 21004KT 11/03 A3028 RMK AO1 SLP252 T01110028 =
2017-10-17 16:54 METAR KMTP 172054Z AUTO VRB03KT 12/01 A3027 RMK AO1 SLP250 T01220006 56008 =
2017-10-17 15:54 METAR KMTP 171954Z AUTO VRB03KT 12/01 A3028 RMK AO1 SLP252 T01220006 =
2017-10-17 14:54 METAR KMTP 171854Z AUTO 33005KT 12/00 A3028 RMK AO1 SLP253 T01220000 =
2017-10-17 13:54 METAR KMTP 171754Z AUTO VRB04KT 12/M01 A3029 RMK AO1 SLP258 T01221006 10122
                 20083 58005 =
2017-10-17 12:54 METAR KMTP 171654Z AUTO VRB03KT 12/01 A3030 RMK AO1 SLP260 T01170006 =
2017-10-17 11:54 METAR KMTP 171554Z AUTO VRB05KT 12/00 A3031 RMK AO1 SLP263 T01170000 =
2017-10-17 10:54 METAR KMTP 171454Z AUTO 01007KT 11/02 A3031 RMK AO1 SLP263 T01060017 50005 =
2017-10-17 09:54 METAR KMTP 171354Z AUTO 02007G15KT 09/03 A3032 RMK AO1 SLP265 T00940028 =
2017-10-17 07:54 METAR KMTP 171154Z AUTO 01009G18KT 08/02 A3029 RMK AO1 SLP258 T00830017 10094
                 20083 53021 =
2017-10-17 05:54 METAR KMTP 170954Z AUTO 01010G21KT 09/02 A3025 RMK AO1 SLP245 T00890017 =
2017-10-17 03:54 METAR KMTP 170754Z AUTO 36012G19KT 09/02 A3022 RMK AO1 SLP233 T00890022 =

Support USWX by starting your Amazon purchase here.